Terminal Aerodrome Forecast
Issued by NWS Cleveland, OH

Home | Current Version | Previous Version | Graphics & Text | Print | Product List | Glossary Off
Versions: 1 2 3 4 5 6 7 8 9 10 11 12 13 14 15 16 17 18 19 20

611
FTUS41 KCLE 211722
TAFMFD
TAF
KMFD 211722Z 2118/2218 18010KT P6SM OVC250
     FM220000 16008KT P6SM OVC100
     FM220600 18006KT P6SM SCT012 BKN100
     FM220800 14003KT 4SM BR SCT006 OVC012
      TEMPO 2209/2213 3/4SM BR BKN006
     FM221600 08004KT 6SM HZ OVC012=

USA.gov is the U.S. government's official web portal to all federal, state and local government web resources and services.